Time;durP1;ratioP1;P1;durP2;ratioP2;P2;SDS_P1;SDS_P2;PMS_P1;PMS_P2;Temp;Humidity;BMP_temperature;BMP_pressure;BME280_temperature;BME280_humidity;BME280_pressure;Samples;Min_cycle;Max_cycle;Signal;HPM_P1;HPM_P2
2024/04/24 00:01:38;;;;;;;;;21.50;19.75;;;;;16.22;79.21;99917.75;146607;578;47037;-70
2024/04/24 00:04:38;;;;;;;;;20.50;19.00;;;;;16.22;78.89;99925.59;146613;643;46010;-71
2024/04/24 00:07:58;;;;;;;;;19.50;18.25;;;;;16.17;78.09;99919.44;146607;604;46017;-71
2024/04/24 00:11:14;;;;;;;;;21.00;20.00;;;;;16.07;79.04;99920.97;146612;577;46020;-72
2024/04/24 00:14:21;;;;;;;;;19.00;17.75;;;;;15.98;78.57;99923.47;146609;570;46016;-71
2024/04/24 00:17:16;;;;;;;;;18.25;17.25;;;;;15.92;nan;99921.62;146610;635;47010;-71
2024/04/24 00:20:20;;;;;;;;;20.25;18.25;;;;;15.86;79.15;99921.53;146609;660;46012;-71
2024/04/24 00:23:31;;;;;;;;;18.25;17.75;;;;;15.82;79.76;99916.22;146613;565;46021;-71
2024/04/24 00:26:33;;;;;;;;;19.00;17.25;;;;;15.77;80.23;99917.87;146608;598;46016;-72
2024/04/24 00:29:46;;;;;;;;;20.00;16.50;;;;;15.75;78.96;99916.97;146611;600;46021;-72
2024/04/24 00:32:48;;;;;;;;;20.75;18.00;;;;;15.75;80.35;99923.06;146608;579;46016;-71
2024/04/24 00:35:47;;;;;;;;;20.50;18.25;;;;;15.73;79.92;99922.16;146614;579;46020;-72
2024/04/24 00:38:50;;;;;;;;;18.75;16.75;;;;;15.73;81.84;99918.66;146610;606;46017;-74
2024/04/24 00:41:52;;;;;;;;;21.00;18.50;;;;;15.71;80.16;99929.09;146613;570;47010;-72
2024/04/24 00:44:51;;;;;;;;;17.25;16.75;;;;;15.68;80.41;99929.94;146610;631;46017;-71
2024/04/24 00:47:58;;;;;;;;;18.00;17.00;;;;;15.67;80.92;99940.37;146610;598;46010;-71
2024/04/24 00:51:15;;;;;;;;;18.75;16.50;;;;;14.95;79.81;99827.56;146609;563;47012;-71
2024/04/24 00:54:36;;;;;;;;;17.75;17.75;;;;;14.96;79.41;99847.59;146612;606;47010;-73
2024/04/24 00:57:29;;;;;;;;;20.25;17.00;;;;;15.56;80.01;99950.56;146607;632;46036;-72
2024/04/24 01:00:56;;;;;;;;;17.50;15.00;;;;;15.53;79.70;99947.03;146630;584;46011;-71
2024/04/24 01:03:59;;;;;;;;;17.75;16.50;;;;;15.51;79.25;99949.59;146632;696;45012;-75
2024/04/24 01:07:03;;;;;;;;;18.75;15.50;;;;;15.54;79.44;99944.44;146630;610;45021;-71
2024/04/24 01:10:01;;;;;;;;;17.00;16.00;;;;;15.56;79.48;99953.19;146626;590;48012;-72
2024/04/24 01:12:57;;;;;;;;;17.75;15.75;;;;;15.50;80.52;99963.53;146632;576;45020;-72
2024/04/24 01:15:59;;;;;;;;;16.25;14.75;;;;;15.39;80.86;99973.78;146629;571;45017;-71
2024/04/24 01:19:37;;;;;;;;;20.75;18.00;;;;;15.30;78.96;99970.97;146627;652;46010;-71
2024/04/24 01:23:06;;;;;;;;;15.00;15.00;;;;;14.54;79.08;99852.81;146631;570;46016;-71
2024/04/24 01:26:31;;;;;;;;;16.75;16.00;;;;;14.59;79.15;99879.00;146633;630;46010;-73
2024/04/24 01:29:45;;;;;;;;;;;;;;;;;;;;;
2024/04/24 01:32:42;;;;;;;;;16.00;13.75;;;;;15.13;80.83;99968.00;146632;594;46020;-72
2024/04/24 01:35:48;;;;;;;;;19.00;17.50;;;;;15.09;80.32;99971.41;146632;583;45911;-72
2024/04/24 01:38:52;;;;;;;;;17.00;14.75;;;;;15.09;80.32;99968.81;146633;575;46010;-72
2024/04/24 01:41:47;;;;;;;;;16.25;14.00;;;;;15.11;80.92;99966.22;146630;570;45910;-72
2024/04/24 01:45:02;;;;;;;;;16.00;16.00;;;;;14.47;79.29;99856.09;146634;607;45020;-71
2024/04/24 01:48:05;;;;;;;;;16.75;15.00;;;;;15.15;80.43;99979.38;146631;598;46012;-74
2024/04/24 01:51:10;;;;;;;;;15.25;14.25;;;;;15.16;81.00;99975.03;146633;577;45021;-75
2024/04/24 01:54:09;;;;;;;;;19.25;15.00;;;;;15.10;80.68;99975.78;146631;578;45909;-73
2024/04/24 01:57:03;;;;;;;;;15.75;13.75;;;;;15.02;80.08;99975.63;146631;647;46020;-73
2024/04/24 02:00:31;;;;;;;;;19.00;17.75;;;;;14.99;80.25;99978.19;146609;576;46016;-74
2024/04/24 02:03:38;;;;;;;;;16.50;15.75;;;;;14.98;80.54;99983.34;146611;622;46020;-76
2024/04/24 02:06:33;;;;;;;;;16.50;15.25;;;;;14.91;80.32;99978.84;146606;583;48017;-78
2024/04/24 02:09:29;;;;;;;;;15.50;14.50;;;;;14.87;80.05;99977.03;146613;570;47010;-77
2024/04/24 02:12:23;;;;;;;;;20.00;14.50;;;;;14.80;80.84;99981.25;146610;571;46911;-80
2024/04/24 02:15:18;;;;;;;;;18.50;16.50;;;;;14.71;80.62;99979.31;146609;584;46916;-82
2024/04/24 02:18:12;;;;;;;;;18.00;15.00;;;;;14.70;81.07;99974.03;146609;577;46016;-81
2024/04/24 02:21:18;;;;;;;;;15.00;15.00;;;;;14.69;80.42;99974.88;146610;618;46020;-83
2024/04/24 02:25:33;;;;;;;;;15.50;13.50;;;;;14.66;80.67;99980.91;146627;640;46012;-82
2024/04/24 02:27:37;;;;;;;;;15.50;14.75;;;;;14.68;80.73;99989.66;146612;618;46021;-83
2024/04/24 02:30:38;;;;;;;;;14.75;13.50;;;;;14.67;80.94;99993.13;146611;700;46012;-78
2024/04/24 02:33:34;;;;;;;;;19.75;14.50;;;;;14.60;82.30;99992.94;146610;585;46020;-76
2024/04/24 02:36:38;;;;;;;;;15.75;13.50;;;;;14.51;82.84;99996.22;146610;586;46013;-77
2024/04/24 02:39:34;;;;;;;;;18.50;14.25;;;;;14.43;83.67;100000.34;146603;634;46020;-77
2024/04/24 02:42:27;;;;;;;;;21.00;17.50;;;;;14.34;83.65;99993.19;146610;618;46016;-78
2024/04/24 02:45:25;;;;;;;;;18.25;14.50;;;;;14.33;82.51;100004.47;146612;735;46012;-76
2024/04/24 02:48:20;;;;;;;;;14.75;13.75;;;;;14.35;82.70;100007.09;146609;596;46014;-77
2024/04/24 02:51:30;;;;;;;;;20.25;17.50;;;;;14.37;81.97;100008.03;146613;565;46010;-76
2024/04/24 02:54:27;;;;;;;;;16.25;15.00;;;;;14.41;82.54;100007.25;146612;616;46012;-76
2024/04/24 02:57:28;;;;;;;;;16.00;15.50;;;;;14.37;82.14;100018.47;146612;587;46021;-78
2024/04/24 03:00:29;;;;;;;;;15.50;14.00;;;;;14.31;81.89;100004.41;146631;569;46911;-71
2024/04/24 03:03:29;;;;;;;;;17.25;15.50;;;;;14.23;82.96;100003.31;146629;573;46010;-72
2024/04/24 03:06:28;;;;;;;;;16.50;14.50;;;;;14.20;82.39;100013.69;146630;611;45911;-72
2024/04/24 03:09:27;;;;;;;;;14.00;14.00;;;;;14.24;82.81;100018.16;146635;614;45020;-71
2024/04/24 03:12:25;;;;;;;;;18.50;15.00;;;;;14.23;82.25;100010.28;146631;569;45910;-72
2024/04/24 03:15:33;;;;;;;;;;;;;;;;;;;;;
2024/04/24 03:18:49;;;;;;;;;15.75;14.75;;;;;14.22;81.91;100005.91;146632;599;45908;-72
2024/04/24 03:21:49;;;;;;;;;18.00;15.25;;;;;14.20;81.42;100007.59;146628;570;45021;-74
2024/04/24 03:24:51;;;;;;;;;18.25;17.50;;;;;14.16;81.91;100003.16;146626;598;46014;-75
2024/04/24 03:27:48;;;;;;;;;22.00;15.00;;;;;14.16;81.41;100009.25;146635;593;45020;-74
2024/04/24 03:31:07;;;;;;;;;17.25;15.00;;;;;14.12;81.15;100010.03;146631;610;45030;-72
2024/04/24 03:34:02;;;;;;;;;23.25;17.25;;;;;14.09;81.68;100013.41;146635;569;46021;-73
2024/04/24 03:37:04;;;;;;;;;22.50;20.25;;;;;14.07;81.25;100011.62;146630;620;45913;-74
2024/04/24 03:40:01;;;;;;;;;18.00;17.00;;;;;14.07;81.71;100022.91;146631;637;45020;-74
2024/04/24 03:43:05;;;;;;;;;22.75;19.75;;;;;13.44;82.15;99907.50;146632;587;46016;-73
2024/04/24 03:46:18;;;;;;;;;23.25;19.50;;;;;14.01;83.10;100014.06;146630;602;46010;-72
2024/04/24 03:49:20;;;;;;;;;18.75;17.50;;;;;13.96;83.32;100021.78;146628;711;45913;-72
2024/04/24 03:52:27;;;;;;;;;20.75;18.75;;;;;13.93;82.23;100020.81;146628;675;45020;-71
2024/04/24 03:55:40;;;;;;;;;22.25;21.00;;;;;13.52;82.10;99948.53;146626;577;46014;-72
2024/04/24 03:58:38;;;;;;;;;21.25;20.25;;;;;13.95;83.17;100022.59;146628;570;45012;-73
2024/04/24 04:01:38;;;;;;;;;19.75;19.00;;;;;13.94;83.29;100025.19;146607;588;46016;-71
2024/04/24 04:04:40;;;;;;;;;19.75;18.50;;;;;13.90;82.59;100020.75;146611;621;47010;-73
2024/04/24 04:07:45;;;;;;;;;23.00;18.25;;;;;13.90;84.34;100023.34;146611;572;46016;-73
2024/04/24 04:10:59;;;;;;;;;21.00;18.25;;;;;13.30;82.33;99915.81;146611;682;47010;-73
2024/04/24 04:13:53;;;;;;;;;28.00;22.00;;;;;13.94;83.51;100028.66;146607;605;47013;-74
2024/04/24 04:16:48;;;;;;;;;22.00;20.25;;;;;13.97;83.09;100033.06;146614;615;46010;-72
2024/04/24 04:19:53;;;;;;;;;;;;;;;;;;;;;
2024/04/24 04:22:48;;;;;;;;;18.50;17.75;;;;;14.03;83.66;100041.06;146609;591;47012;-73
2024/04/24 04:25:43;;;;;;;;;18.50;16.50;;;;;14.08;83.54;100042.03;146608;583;47012;-73
2024/04/24 04:28:45;;;;;;;;;17.00;15.75;;;;;14.19;83.87;100051.03;146613;606;46010;-72
2024/04/24 04:31:43;;;;;;;;;34.25;30.75;;;;;14.28;83.75;100056.50;146605;598;46016;-71
2024/04/24 04:34:51;;;;;;;;;22.25;20.25;;;;;14.35;83.41;100057.53;146613;616;47010;-73
2024/04/24 04:37:56;;;;;;;;;22.00;19.75;;;;;14.42;82.86;100069.88;146609;586;46016;-74
2024/04/24 04:40:52;;;;;;;;;26.50;20.75;;;;;14.52;84.13;100078.88;146613;589;46020;-73
2024/04/24 04:43:56;;;;;;;;;20.75;19.00;;;;;14.60;83.50;100087.75;146607;591;47016;-73
2024/04/24 04:46:54;;;;;;;;;20.25;16.50;;;;;14.71;84.15;100098.47;146611;582;46020;-74
2024/04/24 04:49:57;;;;;;;;;;;;;;;;;;;;;
2024/04/24 04:53:13;;;;;;;;;24.25;20.75;;;;;14.90;83.11;100097.19;146610;582;47010;-74
2024/04/24 04:56:43;;;;;;;;;26.25;20.75;;;;;14.98;83.24;100099.13;146606;609;47013;-73
2024/04/24 04:59:54;;;;;;;;;24.50;19.75;;;;;15.10;82.96;100095.00;146615;631;46020;-74
2024/04/24 05:02:59;;;;;;;;;24.75;20.75;;;;;15.25;83.63;100091.00;146610;570;46012;-74
2024/04/24 05:05:58;;;;;;;;;26.75;24.50;;;;;15.42;84.67;100093.09;146609;576;47010;-74
2024/04/24 05:09:03;;;;;;;;;27.25;25.50;;;;;15.54;83.69;100087.25;146609;595;46016;-73
2024/04/24 05:12:06;;;;;;;;;27.00;23.25;;;;;15.69;83.72;100085.88;146610;622;46010;-73
2024/04/24 05:15:04;;;;;;;;;30.50;28.75;;;;;15.94;84.38;100089.84;146608;590;46913;-73
2024/04/24 05:18:12;;;;;;;;;32.50;27.00;;;;;16.20;84.17;100084.25;146612;595;46021;-73
2024/04/24 05:21:10;;;;;;;;;24.00;22.00;;;;;16.48;84.86;100089.94;146607;569;46912;-74
2024/04/24 05:24:02;;;;;;;;;30.50;25.75;;;;;16.70;83.64;100081.63;146609;579;47010;-75
2024/04/24 05:30:30;;;;;;;;;29.75;26.00;;;;;17.05;80.32;100083.94;146611;604;47020;-78
2024/04/24 05:33:25;;;;;;;;;29.00;26.00;;;;;17.13;79.06;100090.16;146609;629;46017;-79
2024/04/24 05:36:23;;;;;;;;;31.00;27.50;;;;;17.21;78.93;100095.50;146610;570;47010;-88
2024/04/24 05:39:17;;;;;;;;;27.75;25.75;;;;;17.38;79.37;100100.97;146609;595;47012;-84
2024/04/24 05:42:29;;;;;;;;;29.00;26.50;;;;;17.58;77.78;100086.41;146613;661;46010;-89
2024/04/24 05:45:29;;;;;;;;;29.50;26.75;;;;;17.80;78.54;100090.19;146607;627;46014;-75
2024/04/24 05:48:25;;;;;;;;;31.75;25.25;;;;;18.06;78.51;100094.84;146612;635;46021;-76
2024/04/24 05:51:21;;;;;;;;;26.75;25.00;;;;;18.31;75.95;100103.84;146609;576;46016;-75
2024/04/24 05:54:35;;;;;;;;;31.50;28.50;;;;;18.53;74.77;100094.44;146613;584;46020;-76
2024/04/24 05:57:37;;;;;;;;;35.00;27.00;;;;;18.78;74.44;100106.06;146607;595;47012;-73
2024/04/24 06:00:40;;;;;;;;;29.25;23.25;;;;;19.01;72.99;100101.00;146634;578;45010;-74
2024/04/24 06:03:44;;;;;;;;;26.00;24.00;;;;;19.08;72.94;100082.66;146628;578;46016;-74
2024/04/24 06:06:37;;;;;;;;;28.75;25.50;;;;;19.47;72.17;100114.41;146633;569;45020;-72
2024/04/24 06:09:36;;;;;;;;;28.25;26.75;;;;;19.68;71.32;100117.16;146632;578;45912;-77
2024/04/24 06:12:44;;;;;;;;;30.75;28.00;;;;;19.92;70.02;100115.53;146633;570;45010;-77
2024/04/24 06:15:43;;;;;;;;;25.50;20.75;;;;;20.13;68.88;100114.72;146631;563;45912;-76
2024/04/24 06:18:44;;;;;;;;;27.00;24.25;;;;;20.29;67.41;100122.66;146633;573;45032;-77
2024/04/24 06:21:49;;;;;;;;;27.50;26.50;;;;;20.40;67.38;100127.91;146631;602;45014;-77
2024/04/24 06:24:48;;;;;;;;;23.25;23.25;;;;;20.33;66.26;100130.56;146632;589;45021;-75
2024/04/24 06:27:58;;;;;;;;;24.25;21.25;;;;;20.16;66.74;100130.53;146629;586;45910;-77
2024/04/24 06:30:56;;;;;;;;;21.00;19.25;;;;;20.06;67.55;100132.22;146628;622;46020;-81
2024/04/24 06:33:54;;;;;;;;;17.50;17.00;;;;;20.07;68.29;100132.25;146631;573;46010;-76
2024/04/24 06:36:46;;;;;;;;;20.75;19.25;;;;;20.16;66.55;100128.75;146626;708;46020;-79
2024/04/24 06:39:47;;;;;;;;;25.00;23.00;;;;;20.20;67.75;100130.53;146631;569;45913;-76
2024/04/24 06:43:19;;;;;;;;;20.50;19.75;;;;;19.60;66.16;100018.94;146634;580;45020;-76
2024/04/24 06:46:32;;;;;;;;;;;;;;;;;;;;;
2024/04/24 06:49:34;;;;;;;;;17.75;16.75;;;;;20.11;66.06;100140.16;146632;551;45021;-75
2024/04/24 06:52:36;;;;;;;;;21.00;16.50;;;;;20.20;68.04;100151.56;146633;564;45035;-76
2024/04/24 06:55:43;;;;;;;;;;;;;;;;;;;;;
2024/04/24 06:58:50;;;;;;;;;20.75;18.00;;;;;20.61;65.47;100149.94;146614;642;46016;-75
2024/04/24 07:01:47;;;;;;;;;24.00;20.00;;;;;20.63;64.72;100142.94;146612;608;46021;-78
2024/04/24 07:05:03;;;;;;;;;21.50;19.00;;;;;20.53;65.72;100140.28;146608;563;46012;-76
2024/04/24 07:08:01;;;;;;;;;21.75;20.25;;;;;20.49;66.74;100143.72;146612;607;46020;-75
2024/04/24 07:11:06;;;;;;;;;;;;;;;;;;;;;
2024/04/24 07:14:12;;;;;;;;;21.25;19.75;;;;;20.65;67.05;100147.28;146612;663;46020;-76
2024/04/24 07:17:15;;;;;;;;;;;;;;;;;;;;;
2024/04/24 07:20:17;;;;;;;;;23.25;17.00;;;;;20.80;67.69;100150.84;146614;563;46018;-75
2024/04/24 07:23:30;;;;;;;;;21.75;17.25;;;;;20.37;65.47;100041.03;146608;584;47012;-74
2024/04/24 07:26:31;;;;;;;;;21.75;20.00;;;;;21.17;65.80;100146.44;146610;683;46021;-75
2024/04/24 07:29:36;;;;;;;;;19.25;18.25;;;;;21.33;64.59;100147.28;146608;602;46915;-75
2024/04/24 07:32:48;;;;;;;;;21.25;17.00;;;;;21.12;65.02;100098.09;146609;673;47012;-76
2024/04/24 07:35:43;;;;;;;;;17.25;15.25;;;;;21.54;64.37;100143.75;146610;565;46016;-76
2024/04/24 07:38:51;;;;;;;;;15.00;13.25;;;;;21.73;64.41;100157.75;146615;636;46020;-75
2024/04/24 07:41:54;;;;;;;;;18.75;16.25;;;;;21.96;63.28;100140.06;146610;567;46018;-75
2024/04/24 07:44:54;;;;;;;;;21.50;17.50;;;;;22.19;63.82;100149.69;146612;564;46020;-75
2024/04/24 07:48:23;;;;;;;;;15.75;14.75;;;;;22.41;62.74;100145.16;146609;580;46017;-75
2024/04/24 07:51:22;;;;;;;;;23.00;21.00;;;;;22.52;61.90;100144.22;146610;615;47010;-75
2024/04/24 07:54:24;;;;;;;;;21.50;17.25;;;;;22.57;60.97;100146.81;146604;607;47012;-76
2024/04/24 07:57:34;;;;;;;;;19.75;18.00;;;;;21.82;61.75;99996.75;146609;632;46020;-74
2024/04/24 08:01:04;;;;;;;;;19.25;18.00;;;;;22.68;61.48;100136.13;146631;598;45016;-70
2024/04/24 08:04:00;;;;;;;;;16.50;15.00;;;;;22.74;61.33;100134.34;146634;609;45022;-69
2024/04/24 08:06:59;;;;;;;;;18.75;17.50;;;;;22.85;61.06;100130.75;146630;599;46012;-70
2024/04/24 08:10:09;;;;;;;;;21.75;16.00;;;;;22.32;60.67;100025.47;146633;614;46046;-69
2024/04/24 08:13:15;;;;;;;;;;;;;;;;;;;;;
2024/04/24 08:16:22;;;;;;;;;20.25;16.75;;;;;23.16;61.35;100124.31;146634;587;45010;-70
2024/04/24 08:19:24;;;;;;;;;18.75;17.50;;;;;23.32;59.21;100119.75;146630;712;46014;-70
2024/04/24 08:22:22;;;;;;;;;19.75;17.00;;;;;23.43;57.83;100125.81;146632;585;45020;-70
2024/04/24 08:25:17;;;;;;;;;21.25;19.50;;;;;23.49;58.30;100125.72;146629;589;45034;-70
2024/04/24 08:28:24;;;;;;;;;18.00;13.00;;;;;23.52;58.55;100122.19;146623;619;46912;-69
2024/04/24 08:31:31;;;;;;;;;17.25;14.25;;;;;23.50;58.40;100124.81;146628;577;46014;-70
2024/04/24 08:34:30;;;;;;;;;17.25;15.50;;;;;23.54;57.56;100125.66;146632;565;45020;-70
2024/04/24 08:37:42;;;;;;;;;16.00;13.50;;;;;23.16;59.50;100052.91;146630;574;45917;-70
2024/04/24 08:40:50;;;;;;;;;16.00;14.75;;;;;23.75;59.23;100111.34;146632;664;46012;-70
2024/04/24 08:43:53;;;;;;;;;14.00;13.50;;;;;23.88;56.89;100102.34;146629;571;46016;-75
2024/04/24 08:46:47;;;;;;;;;16.25;13.75;;;;;23.94;56.29;100102.25;146634;630;45021;-71
2024/04/24 08:49:48;;;;;;;;;16.50;13.25;;;;;23.90;56.99;100079.38;146629;569;45035;-71
2024/04/24 08:53:01;;;;;;;;;;;;;;;;;;;;;
2024/04/24 08:56:11;;;;;;;;;15.00;14.75;;;;;24.42;55.94;100091.91;146631;580;45910;-72
2024/04/24 08:59:18;;;;;;;;;14.25;14.00;;;;;24.54;55.79;100088.16;146619;715;46034;-71
2024/04/24 09:02:26;;;;;;;;;15.00;14.25;;;;;24.65;55.33;100096.81;146614;583;47016;-72
2024/04/24 09:05:39;;;;;;;;;15.75;14.50;;;;;24.72;51.15;100089.62;146621;563;46020;-72
2024/04/24 09:08:21;;;;;;;;;13.25;12.25;;;;;24.68;50.93;100080.00;146696;569;46035;-70
2024/04/24 09:11:17;;;;;;;;;16.75;14.25;;;;;24.72;51.90;100088.78;146612;591;46012;-70
2024/04/24 09:14:34;;;;;;;;;17.75;15.00;;;;;24.79;52.18;100085.97;146608;622;46010;-71
2024/04/24 09:17:49;;;;;;;;;14.75;14.00;;;;;24.94;53.98;100083.97;146602;638;46017;-70
2024/04/24 09:21:02;;;;;;;;;10.00;9.00;;;;;25.07;49.95;100080.19;146607;682;47010;-72
2024/04/24 09:23:56;;;;;;;;;11.00;10.33;;;;;25.20;45.18;100081.72;146609;579;46916;-72
2024/04/24 09:26:48;;;;;;;;;12.00;8.00;;;;;25.24;44.10;100086.09;146607;624;46020;-71
2024/04/24 09:29:55;;;;;;;;;10.67;9.00;;;;;25.30;47.50;100082.47;146611;566;46016;-72
2024/04/24 09:33:01;;;;;;;;;12.67;7.33;;;;;25.35;45.07;100080.56;146612;581;46020;-72
2024/04/24 09:36:02;;;;;;;;;10.33;8.00;;;;;25.45;48.14;100070.63;146610;651;46916;-71
2024/04/24 09:39:06;;;;;;;;;10.00;8.00;;;;;25.53;45.13;100069.59;146611;726;47011;-71
2024/04/24 09:42:02;;;;;;;;;7.67;7.67;;;;;25.57;40.92;100062.44;146610;573;46016;-73
2024/04/24 09:45:00;;;;;;;;;6.67;6.67;;;;;25.55;45.17;100057.16;146614;636;47010;-72
2024/04/24 09:48:10;;;;;;;;;7.00;5.67;;;;;25.60;40.87;100053.53;146612;600;46012;-71
2024/04/24 09:51:10;;;;;;;;;6.00;6.00;;;;;25.64;40.58;100057.84;146614;584;47010;-71
2024/04/24 09:54:11;;;;;;;;;7.33;7.00;;;;;25.68;43.43;100041.84;146609;667;47916;-72
2024/04/24 09:57:10;;;;;;;;;4.67;4.33;;;;;25.72;40.14;100032.03;146615;590;47010;-71
2024/04/24 10:00:28;;;;;;;;;5.33;5.33;;;;;25.79;39.80;100031.88;146612;575;46013;-71
2024/04/24 10:03:51;;;;;;;;;7.00;5.00;;;;;25.89;44.99;100032.56;146616;638;46012;-71
2024/04/24 10:07:03;;;;;;;;;6.33;4.67;;;;;26.01;47.07;100026.97;146609;574;47016;-73
2024/04/24 10:10:03;;;;;;;;;3.00;0.67;;;;;26.10;38.58;100031.19;146616;655;46020;-71
2024/04/24 10:13:09;;;;;;;;;;;;;;;;;;;;;
2024/04/24 10:16:07;;;;;;;;;8.67;7.67;;;;;26.25;40.56;100032.59;146622;571;46013;-71
2024/04/24 10:19:06;;;;;;;;;9.33;7.33;;;;;26.38;42.62;100033.19;146612;621;46014;-71
2024/04/24 10:22:08;;;;;;;;;6.67;4.00;;;;;26.51;39.82;100021.34;146617;588;46020;-72
2024/04/24 10:25:14;;;;;;;;;4.00;3.00;;;;;26.58;37.55;100024.75;146612;597;46016;-72
2024/04/24 10:28:23;;;;;;;;;4.00;4.00;;;;;26.53;36.90;100021.31;146617;589;47010;-72
2024/04/24 10:31:16;;;;;;;;;2.33;1.33;;;;;26.50;35.68;100022.28;146612;565;46038;-72
2024/04/24 10:34:21;;;;;;;;;3.33;3.00;;;;;26.55;39.97;100025.69;146615;614;47012;-72
2024/04/24 10:37:34;;;;;;;;;5.00;4.00;;;;;26.40;42.28;99991.50;146612;677;46017;-72
2024/04/24 10:40:42;;;;;;;;;2.00;2.00;;;;;26.48;38.93;99974.47;146618;595;47020;-72
2024/04/24 10:43:38;;;;;;;;;2.67;2.33;;;;;26.87;38.56;100019.53;146612;615;47012;-72
2024/04/24 10:46:41;;;;;;;;;4.00;2.67;;;;;26.90;37.49;100016.78;146618;677;46010;-72
2024/04/24 10:50:00;;;;;;;;;3.33;2.33;;;;;26.90;41.84;100016.78;146614;570;46016;-71
2024/04/24 10:53:05;;;;;;;;;5.00;3.00;;;;;26.84;40.97;100010.75;146618;588;47010;-72
2024/04/24 10:56:04;;;;;;;;;4.00;2.33;;;;;26.84;39.32;100003.66;146611;573;47012;-73
2024/04/24 10:59:18;;;;;;;;;4.00;4.00;;;;;26.63;44.42;99943.94;146617;569;46020;-72
2024/04/24 11:02:39;;;;;;;;;7.67;5.33;;;;;27.03;41.37;99997.81;146615;599;46016;-71
2024/04/24 11:05:45;;;;;;;;;9.67;6.67;;;;;26.89;42.48;99993.75;146617;571;46012;-72
2024/04/24 11:08:41;;;;;;;;;8.00;7.00;;;;;26.65;42.52;99986.44;146609;581;47016;-72
2024/04/24 11:12:07;;;;;;;;;6.67;5.00;;;;;25.99;45.55;99887.13;146614;598;47010;-71
2024/04/24 11:15:03;;;;;;;;;7.00;5.00;;;;;26.53;43.33;99981.44;146610;590;46034;-71
2024/04/24 11:18:22;;;;;;;;;;;;;;;;;;;;;
2024/04/24 11:21:28;;;;;;;;;6.00;5.00;;;;;26.57;42.12;99976.00;146614;597;46012;-72
2024/04/24 11:24:23;;;;;;;;;6.00;5.33;;;;;26.61;40.50;99977.69;146618;621;46010;-74
2024/04/24 11:27:46;;;;;;;;;9.33;5.67;;;;;26.24;44.58;99925.44;146611;565;46016;-73
2024/04/24 11:30:49;;;;;;;;;9.67;8.00;;;;;26.43;44.87;99983.44;146614;627;47019;-74
2024/04/24 11:34:02;;;;;;;;;8.33;7.33;;;;;25.97;49.06;99910.19;146608;581;47014;-71
2024/04/24 11:36:59;;;;;;;;;8.67;8.00;;;;;26.40;46.78;99978.19;146618;577;46010;-71
2024/04/24 11:39:56;;;;;;;;;7.67;7.67;;;;;26.40;45.37;99967.56;146611;578;47016;-71
2024/04/24 11:42:55;;;;;;;;;8.67;8.00;;;;;26.30;46.30;99974.03;146614;573;47012;-71
2024/04/24 11:46:04;;;;;;;;;11.00;7.33;;;;;26.18;46.94;99965.44;146608;616;47017;-71
2024/04/24 11:49:05;;;;;;;;;9.33;8.00;;;;;26.12;46.68;99967.41;146617;565;46030;-70
2024/04/24 11:52:02;;;;;;;;;8.00;8.00;;;;;26.08;43.62;99965.72;146612;620;47033;-72
2024/04/24 11:55:05;;;;;;;;;13.33;8.33;;;;;26.05;45.48;99958.69;146615;579;47010;-70
2024/04/24 11:58:01;;;;;;;;;11.33;6.67;;;;;26.08;45.15;99960.41;146610;664;47012;-70
2024/04/24 12:01:08;;;;;;;;;8.00;6.00;;;;;26.17;44.42;99954.87;146619;613;46021;-71
2024/04/24 12:04:06;;;;;;;;;8.67;6.33;;;;;26.22;45.48;99943.19;146610;572;47014;-71
2024/04/24 12:07:09;;;;;;;;;9.33;7.00;;;;;26.32;45.25;99946.50;146615;601;48011;-71
2024/04/24 12:10:06;;;;;;;;;9.00;6.67;;;;;26.42;42.07;99939.19;146612;569;46014;-73
2024/04/24 12:13:29;;;;;;;;;11.00;9.67;;;;;26.38;43.74;99937.50;146619;571;46010;-71
2024/04/24 12:16:34;;;;;;;;;8.33;7.00;;;;;26.32;43.72;99927.00;146608;604;47014;-74
2024/04/24 12:19:40;;;;;;;;;12.00;8.33;;;;;26.24;44.19;99932.53;146617;564;46020;-71
2024/04/24 12:22:39;;;;;;;;;11.00;8.33;;;;;26.16;43.71;99927.41;146615;559;46016;-72
2024/04/24 12:25:37;;;;;;;;;7.00;6.00;;;;;26.18;44.97;99930.91;146618;579;46020;-72
2024/04/24 12:28:40;;;;;;;;;9.00;5.33;;;;;26.27;41.89;99924.50;146613;574;46016;-71
2024/04/24 12:31:41;;;;;;;;;10.33;6.67;;;;;26.31;43.54;99919.97;146617;564;47010;-72
2024/04/24 12:34:48;;;;;;;;;9.33;7.67;;;;;26.38;45.06;99929.50;146614;607;47016;-73
2024/04/24 12:37:43;;;;;;;;;5.33;4.33;;;;;26.42;42.00;99918.78;146620;580;46011;-71
2024/04/24 12:40:39;;;;;;;;;8.00;6.00;;;;;26.42;44.21;99915.25;146606;576;46024;-72
2024/04/24 12:43:36;;;;;;;;;7.67;5.00;;;;;26.47;43.81;99916.84;146615;576;46010;-71
2024/04/24 12:46:42;;;;;;;;;11.67;7.00;;;;;26.53;43.70;99918.50;146612;567;46016;-71
2024/04/24 12:49:39;;;;;;;;;12.33;8.00;;;;;26.52;42.39;99914.12;146616;611;47020;-71
2024/04/24 12:52:47;;;;;;;;;9.00;7.33;;;;;26.49;44.81;99912.41;146615;610;46013;-71
2024/04/24 12:55:43;;;;;;;;;9.33;8.67;;;;;26.50;43.85;99913.28;146615;584;47012;-72
2024/04/24 12:58:53;;;;;;;;;12.00;8.33;;;;;26.51;46.71;99916.81;146613;575;46012;-71
2024/04/24 13:01:51;;;;;;;;;7.33;6.33;;;;;26.46;44.11;99899.16;146616;577;46020;-72
2024/04/24 13:04:50;;;;;;;;;8.67;6.67;;;;;26.41;43.59;99894.87;146607;608;48016;-71
2024/04/24 13:07:51;;;;;;;;;10.00;7.67;;;;;26.37;41.72;99893.22;146614;574;46021;-71
2024/04/24 13:10:53;;;;;;;;;6.00;5.67;;;;;26.33;42.83;99886.25;146612;589;46016;-71
2024/04/24 13:13:54;;;;;;;;;7.33;5.00;;;;;26.34;44.18;99888.88;146618;601;46011;-71
2024/04/24 13:17:01;;;;;;;;;8.00;6.33;;;;;26.38;42.84;99889.66;146612;633;46016;-71
2024/04/24 13:20:01;;;;;;;;;9.00;7.00;;;;;26.29;40.73;99881.91;146616;575;46020;-71
2024/04/24 13:22:53;;;;;;;;;10.00;7.00;;;;;26.15;43.02;99890.25;146611;655;47016;-73
2024/04/24 13:26:00;;;;;;;;;9.00;7.33;;;;;26.07;41.61;99881.59;146618;584;47010;-72
2024/04/24 13:28:57;;;;;;;;;10.00;6.00;;;;;25.99;42.61;99874.72;146614;578;46012;-73
2024/04/24 13:32:18;;;;;;;;;10.33;6.67;;;;;25.99;40.93;99873.84;146617;648;46020;-73
2024/04/24 13:35:21;;;;;;;;;9.00;5.67;;;;;25.50;44.69;99792.72;146614;583;46012;-71
2024/04/24 13:38:14;;;;;;;;;9.67;8.00;;;;;25.97;41.64;99855.28;146616;577;47019;-71
2024/04/24 13:41:32;;;;;;;;;7.00;6.00;;;;;25.44;44.02;99764.56;146612;672;46913;-71
2024/04/24 13:44:24;;;;;;;;;8.33;6.67;;;;;26.04;41.47;99863.97;146613;628;47012;-71
2024/04/24 13:47:45;;;;;;;;;6.33;5.67;;;;;25.73;43.81;99800.09;146614;650;46016;-72
2024/04/24 13:50:54;;;;;;;;;11.33;7.67;;;;;25.53;46.61;99761.66;146617;564;46022;-71
2024/04/24 13:53:49;;;;;;;;;11.33;6.67;;;;;25.95;40.07;99854.47;146613;592;46016;-71
2024/04/24 13:56:43;;;;;;;;;9.00;6.00;;;;;25.87;40.88;99844.94;146618;585;46020;-73
2024/04/24 13:59:59;;;;;;;;;8.00;5.67;;;;;25.78;42.60;99844.22;146614;583;46035;-70
2024/04/24 14:02:59;;;;;;;;;10.67;5.00;;;;;25.72;41.03;99846.16;146619;589;46020;-73
2024/04/24 14:06:00;;;;;;;;;5.67;4.00;;;;;25.66;40.09;99838.34;146611;674;46015;-71
2024/04/24 14:09:18;;;;;;;;;6.00;5.33;;;;;25.57;40.98;99840.31;146618;701;46010;-72
2024/04/24 14:12:28;;;;;;;;;7.67;6.00;;;;;25.44;37.89;99832.69;146613;570;46028;-72
2024/04/24 14:15:29;;;;;;;;;8.00;6.00;;;;;25.32;40.11;99837.38;146615;642;47010;-71
2024/04/24 14:18:41;;;;;;;;;;;;;;;;;;;;;
2024/04/24 14:21:34;;;;;;;;;5.00;3.00;;;;;25.26;39.35;99833.97;146616;579;47008;-73
2024/04/24 14:24:37;;;;;;;;;5.33;3.00;;;;;25.20;42.48;99835.00;146612;569;47012;-70
2024/04/24 14:27:57;;;;;;;;;;;;;;;;;;;;;
2024/04/24 14:31:23;;;;;;;;;5.00;5.00;;;;;24.57;42.10;99740.03;146610;638;46016;-73
2024/04/24 14:34:20;;;;;;;;;8.00;6.00;;;;;25.05;39.71;99836.19;146619;580;46010;-71